Time;durP1;ratioP1;P1;durP2;ratioP2;P2;SDS_P1;SDS_P2;PMS_P1;PMS_P2;Temp;Humidity;BMP_temperature;BMP_pressure;BME280_temperature;BME280_humidity;BME280_pressure;Samples;Min_cycle;Max_cycle;Signal;HPM_P1;HPM_P2
2022/01/19 00:00:56;;;;;;;60.42;22.55;;;5.90;99.90;;;;;;5097242;27;20047;-68
2022/01/19 00:03:22;;;;;;;62.70;22.80;;;5.90;99.90;;;;;;5103218;27;20053;-68
2022/01/19 00:05:49;;;;;;;68.60;23.52;;;5.90;99.90;;;;;;5099008;27;20039;-68
2022/01/19 00:08:18;;;;;;;63.55;24.00;;;5.90;99.90;;;;;;5116063;27;20046;-68
2022/01/19 00:10:45;;;;;;;57.25;22.90;;;6.00;99.90;;;;;;5116268;27;20071;-68
2022/01/19 00:13:11;;;;;;;64.93;24.40;;;5.90;99.90;;;;;;5115464;27;20075;-68
2022/01/19 00:15:38;;;;;;;61.47;23.02;;;5.80;99.90;;;;;;5115879;27;20049;-68
2022/01/19 00:18:04;;;;;;;76.30;25.52;;;5.90;99.90;;;;;;5115906;27;20043;-68
2022/01/19 00:20:31;;;;;;;71.97;24.13;;;5.90;99.90;;;;;;5134201;27;20369;-68
2022/01/19 00:22:58;;;;;;;68.57;23.20;;;5.90;99.90;;;;;;5098679;27;20118;-68
2022/01/19 00:25:24;;;;;;;65.93;24.38;;;5.90;99.90;;;;;;5115747;27;20448;-68
2022/01/19 00:27:50;;;;;;;64.93;24.15;;;5.90;99.90;;;;;;5133966;27;20078;-68
2022/01/19 00:30:17;;;;;;;64.22;22.88;;;5.90;99.90;;;;;;5115494;27;20045;-69
2022/01/19 00:32:43;;;;;;;66.13;23.88;;;5.90;99.90;;;;;;5133585;27;20118;-68
2022/01/19 00:35:11;;;;;;;68.57;23.50;;;5.90;99.90;;;;;;5115326;27;20051;-69
2022/01/19 00:37:39;;;;;;;64.38;23.45;;;5.90;99.90;;;;;;5115342;27;20114;-68
2022/01/19 00:40:07;;;;;;;63.67;23.30;;;5.80;99.90;;;;;;5133853;27;20474;-68
2022/01/19 00:42:32;;;;;;;62.63;23.48;;;5.80;99.90;;;;;;5115361;27;20044;-68
2022/01/19 00:44:58;;;;;;;58.38;22.50;;;5.80;99.90;;;;;;5114965;27;20524;-68
2022/01/19 00:47:23;;;;;;;67.63;22.92;;;5.70;99.90;;;;;;5114584;27;20494;-68
2022/01/19 00:49:49;;;;;;;63.45;22.25;;;5.80;99.90;;;;;;5115324;27;20041;-68
2022/01/19 00:52:15;;;;;;;69.05;21.80;;;5.70;99.90;;;;;;5133360;27;20054;-68
2022/01/19 00:54:41;;;;;;;59.70;22.27;;;5.60;99.90;;;;;;5133673;27;20384;-68
2022/01/19 00:57:08;;;;;;;57.50;21.48;;;5.60;99.90;;;;;;5117720;27;20510;-68
2022/01/19 00:59:34;;;;;;;54.40;20.50;;;5.50;99.90;;;;;;5135469;27;20035;-69
2022/01/19 01:02:00;;;;;;;54.05;20.35;;;5.40;99.90;;;;;;5114548;27;20089;-68
2022/01/19 01:04:26;;;;;;;57.35;21.33;;;5.40;99.90;;;;;;5114745;27;20039;-70
2022/01/19 01:06:52;;;;;;;64.40;20.77;;;5.30;99.90;;;;;;5115221;27;20083;-68
2022/01/19 01:09:17;;;;;;;58.67;20.35;;;5.30;99.90;;;;;;5133045;27;20117;-68
2022/01/19 01:11:56;;;;;;;58.83;21.15;;;5.30;99.90;;;;;;5114633;27;20106;-69
2022/01/19 01:20:01;;;;;;;52.17;18.75;;;5.20;99.90;;;;;;5133094;27;20395;-68
2022/01/19 01:22:26;;;;;;;53.30;19.52;;;5.20;99.90;;;;;;5132719;27;20547;-68
2022/01/19 01:24:52;;;;;;;45.83;17.83;;;5.10;99.90;;;;;;5114095;27;20039;-68
2022/01/19 01:27:18;;;;;;;48.15;17.33;;;5.00;99.90;;;;;;5133050;27;20031;-67
2022/01/19 01:29:44;;;;;;;50.28;17.58;;;4.80;99.90;;;;;;5132984;27;20035;-68
2022/01/19 01:32:10;;;;;;;44.25;19.50;;;4.80;99.90;;;;;;5114297;27;20043;-68
2022/01/19 01:34:35;;;;;;;54.30;19.90;;;4.90;99.90;;;;;;5114580;27;20047;-68
2022/01/19 01:37:02;;;;;;;50.25;20.60;;;4.70;99.90;;;;;;5114564;27;20047;-68
2022/01/19 01:39:27;;;;;;;50.20;18.63;;;4.60;99.90;;;;;;5132792;27;20043;-68
2022/01/19 01:41:53;;;;;;;47.35;18.35;;;4.70;99.90;;;;;;5132637;27;20031;-68
2022/01/19 01:44:19;;;;;;;51.78;18.45;;;4.70;99.90;;;;;;5114497;27;20036;-68
2022/01/19 01:46:49;;;;;;;52.08;19.15;;;4.80;99.90;;;;;;5132758;28;20120;-68
2022/01/19 01:49:22;;;;;;;52.42;19.58;;;4.70;99.90;;;;;;5114321;28;20053;-68
2022/01/19 01:54:32;;;;;;;46.17;18.45;;;4.60;99.90;;;;;;5132651;27;20047;-68
2022/01/19 01:56:57;;;;;;;50.63;18.15;;;4.70;99.90;;;;;;5114269;28;20474;-68
2022/01/19 01:59:23;;;;;;;45.38;17.45;;;4.60;99.90;;;;;;5132634;28;20080;-68
2022/01/19 02:01:49;;;;;;;38.10;16.48;;;4.60;99.90;;;;;;5113921;28;20111;-66
2022/01/19 02:04:14;;;;;;;47.60;17.83;;;4.50;99.90;;;;;;5132423;27;20560;-67
2022/01/19 02:07:03;;;;;;;53.75;18.58;;;4.50;99.90;;;;;;5114176;28;20039;-67
2022/01/19 02:09:33;;;;;;;48.38;17.35;;;4.50;99.90;;;;;;5132425;28;20043;-67
2022/01/19 02:25:58;;;;;;;44.33;16.08;;;4.50;99.90;;;;;;5117441;28;20118;-67
2022/01/19 02:36:38;;;;;;;58.08;20.38;;;4.50;99.90;;;;;;5135083;27;20043;-67
2022/01/19 02:41:51;;;;;;;60.58;21.65;;;4.60;99.90;;;;;;5117395;27;20043;-67
2022/01/19 02:44:33;;;;;;;70.43;21.20;;;4.70;99.90;;;;;;5135861;27;20089;-67
2022/01/19 02:49:48;;;;;;;59.97;19.45;;;4.60;99.90;;;;;;5135999;27;20043;-67
2022/01/19 02:52:14;;;;;;;119.95;21.55;;;4.60;99.90;;;;;;5117319;27;20043;-67
2022/01/19 02:54:40;;;;;;;116.75;19.80;;;4.60;99.90;;;;;;5135777;27;20103;-67
2022/01/19 02:57:09;;;;;;;69.10;15.32;;;4.50;99.90;;;;;;5117431;27;20038;-67
2022/01/19 03:10:35;;;;;;;39.60;16.00;;;4.30;99.90;;;;;;5117319;27;20075;-68
2022/01/19 03:13:01;;;;;;;68.55;16.77;;;4.30;99.90;;;;;;5116582;27;20071;-67
2022/01/19 03:15:27;;;;;;;37.88;16.92;;;4.40;99.90;;;;;;5117214;27;20507;-67
2022/01/19 03:17:57;;;;;;;33.88;15.75;;;4.40;99.90;;;;;;5116976;27;20043;-68
2022/01/19 03:20:24;;;;;;;37.85;15.93;;;4.40;99.90;;;;;;5117137;27;20119;-68
2022/01/19 03:23:00;;;;;;;42.63;16.58;;;4.40;99.90;;;;;;5134901;27;20039;-68
2022/01/19 03:25:26;;;;;;;63.50;17.35;;;4.50;99.90;;;;;;5116830;27;20050;-68
2022/01/19 03:27:51;;;;;;;44.05;17.05;;;4.50;99.90;;;;;;5116753;27;20035;-67
2022/01/19 03:30:19;;;;;;;48.47;18.50;;;4.50;99.90;;;;;;5116894;27;20039;-68
2022/01/19 03:32:45;;;;;;;47.47;16.10;;;4.50;99.90;;;;;;5134872;27;20445;-68
2022/01/19 03:35:12;;;;;;;34.50;15.65;;;4.40;99.90;;;;;;5116658;27;20074;-68
2022/01/19 03:37:39;;;;;;;37.33;16.08;;;4.40;99.90;;;;;;5100004;27;20043;-68
2022/01/19 03:40:08;;;;;;;35.97;16.92;;;4.40;99.90;;;;;;5116610;27;20100;-68
2022/01/19 03:42:35;;;;;;;34.30;16.42;;;4.40;99.90;;;;;;5116604;27;20069;-68
2022/01/19 03:45:01;;;;;;;48.75;17.33;;;4.40;99.90;;;;;;5116597;27;20074;-68
2022/01/19 03:47:27;;;;;;;42.33;17.30;;;4.40;99.90;;;;;;5134319;27;20042;-68
2022/01/19 03:49:54;;;;;;;42.60;18.45;;;4.50;99.90;;;;;;5118502;27;20047;-68
2022/01/19 03:52:19;;;;;;;58.28;18.10;;;4.30;99.90;;;;;;5118346;27;20027;-68
2022/01/19 03:54:46;;;;;;;41.83;17.92;;;4.20;99.90;;;;;;5117176;27;20444;-68
2022/01/19 03:57:12;;;;;;;36.95;18.23;;;4.20;99.90;;;;;;5134872;27;20092;-68
2022/01/19 03:59:39;;;;;;;39.88;18.55;;;4.30;99.90;;;;;;5134865;27;20042;-68
2022/01/19 04:02:05;;;;;;;43.47;17.45;;;4.20;99.90;;;;;;5116360;27;20094;-68
2022/01/19 04:04:40;;;;;;;39.28;17.00;;;4.10;99.90;;;;;;5134211;27;20415;-68
2022/01/19 04:09:31;;;;;;;34.28;16.17;;;4.00;99.90;;;;;;5134411;27;20051;-68
2022/01/19 04:11:58;;;;;;;36.47;15.13;;;4.10;99.90;;;;;;5134166;27;20031;-68
2022/01/19 04:14:27;;;;;;;35.35;15.48;;;3.80;99.90;;;;;;5116515;27;20047;-68
2022/01/19 04:16:58;;;;;;;32.13;14.00;;;3.80;99.90;;;;;;5098675;27;20043;-68
2022/01/19 04:21:55;;;;;;;28.38;14.20;;;3.90;99.90;;;;;;5115446;27;20039;-68
2022/01/19 04:24:22;;;;;;;32.03;13.70;;;3.90;99.90;;;;;;5134100;27;20268;-68
2022/01/19 04:29:32;;;;;;;27.30;13.55;;;3.90;99.90;;;;;;5115666;27;20138;-68
2022/01/19 04:31:57;;;;;;;30.30;13.25;;;4.00;99.90;;;;;;5115118;27;20066;-68
2022/01/19 04:34:23;;;;;;;27.45;14.02;;;3.90;99.90;;;;;;5115606;27;20126;-66
2022/01/19 04:43:53;;;;;;;39.10;15.63;;;3.90;99.90;;;;;;5133924;27;20039;-67
2022/01/19 04:46:00;;;;;;;34.65;14.82;;;3.90;99.90;;;;;;5133507;27;20464;-67
2022/01/19 04:48:10;;;;;;;32.85;15.52;;;3.80;99.90;;;;;;5122575;27;20043;-67
2022/01/19 05:01:41;;;;;;;40.33;18.83;;;3.90;99.90;;;;;;5133637;27;20347;-68
2022/01/19 05:06:49;;;;;;;38.13;17.23;;;4.00;99.90;;;;;;5133324;27;20521;-67
2022/01/19 05:09:49;;;;;;;41.15;17.45;;;3.80;99.90;;;;;;5098076;27;20031;-67
2022/01/19 05:14:53;;;;;;;43.92;17.95;;;3.90;99.90;;;;;;5115858;27;20078;-68
2022/01/19 05:17:19;;;;;;;47.15;19.30;;;3.90;99.90;;;;;;5135593;27;20043;-68
2022/01/19 05:19:44;;;;;;;46.13;18.17;;;3.80;99.90;;;;;;5135111;27;20039;-68
2022/01/19 05:22:10;;;;;;;42.53;17.77;;;3.80;99.90;;;;;;5132691;27;20038;-68
2022/01/19 05:24:35;;;;;;;43.00;18.92;;;3.70;99.90;;;;;;5114333;27;20047;-68
2022/01/19 05:27:01;;;;;;;41.38;18.83;;;3.80;99.90;;;;;;5114980;27;20049;-68
2022/01/19 05:29:26;;;;;;;46.13;17.90;;;3.80;99.90;;;;;;5133006;27;20056;-67
2022/01/19 05:31:52;;;;;;;43.42;18.10;;;3.70;99.90;;;;;;5114407;27;20411;-68
2022/01/19 05:34:18;;;;;;;47.05;18.25;;;3.80;99.90;;;;;;5114507;27;20078;-67
2022/01/19 05:36:43;;;;;;;44.95;19.02;;;3.70;99.90;;;;;;5114288;28;20115;-67
2022/01/19 05:39:09;;;;;;;39.67;18.05;;;3.70;99.90;;;;;;5097849;28;20043;-67
2022/01/19 05:41:34;;;;;;;37.42;17.27;;;3.70;99.90;;;;;;5132676;27;20050;-67
2022/01/19 05:44:00;;;;;;;39.00;18.25;;;3.60;99.90;;;;;;5114118;27;20087;-67
2022/01/19 05:46:26;;;;;;;38.13;16.92;;;3.60;99.90;;;;;;5114409;27;20110;-68
2022/01/19 05:48:51;;;;;;;39.67;17.35;;;3.60;99.90;;;;;;5114172;28;20044;-68
2022/01/19 05:51:17;;;;;;;43.08;17.50;;;3.50;99.90;;;;;;5114685;28;20108;-68
2022/01/19 05:53:43;;;;;;;40.65;17.60;;;3.50;99.90;;;;;;5114207;28;20114;-68
2022/01/19 05:56:09;;;;;;;41.78;18.20;;;3.60;99.90;;;;;;5114398;28;20073;-68
2022/01/19 05:58:34;;;;;;;40.42;17.88;;;3.50;99.90;;;;;;5132656;28;20039;-68
2022/01/19 06:01:00;;;;;;;41.22;17.55;;;3.40;99.90;;;;;;5114170;28;20041;-68
2022/01/19 06:03:26;;;;;;;37.47;17.92;;;3.50;99.90;;;;;;5113950;28;20107;-68
2022/01/19 06:05:51;;;;;;;42.85;19.30;;;3.50;99.90;;;;;;5114043;28;20035;-68
2022/01/19 06:10:46;;;;;;;49.83;19.23;;;3.50;99.90;;;;;;5135785;27;20050;-68
2022/01/19 06:13:14;;;;;;;40.95;18.38;;;3.50;99.90;;;;;;5117872;27;20078;-68
2022/01/19 06:15:40;;;;;;;47.65;19.00;;;3.50;99.90;;;;;;5118414;27;20042;-68
2022/01/19 06:18:06;;;;;;;43.97;17.42;;;3.40;99.90;;;;;;5118447;27;20498;-68
2022/01/19 06:20:31;;;;;;;44.92;18.65;;;3.50;99.90;;;;;;5118275;27;20113;-68
2022/01/19 06:22:57;;;;;;;45.45;19.63;;;3.50;99.90;;;;;;5117938;27;20522;-68
2022/01/19 06:25:23;;;;;;;41.35;18.02;;;3.40;99.90;;;;;;5118052;27;20126;-68
2022/01/19 06:27:48;;;;;;;44.72;18.55;;;3.40;99.90;;;;;;5118133;27;20071;-68
2022/01/19 06:30:14;;;;;;;43.35;17.73;;;3.40;99.90;;;;;;5118024;27;20134;-69
2022/01/19 06:32:40;;;;;;;46.75;18.88;;;3.50;99.90;;;;;;5135959;27;20046;-68
2022/01/19 06:35:07;;;;;;;44.13;18.70;;;3.50;99.90;;;;;;5136118;27;20475;-68
2022/01/19 06:37:33;;;;;;;48.50;21.15;;;3.50;99.90;;;;;;5136234;27;20043;-68
2022/01/19 06:39:59;;;;;;;46.00;19.27;;;3.50;99.90;;;;;;5100750;27;20043;-68
2022/01/19 06:42:24;;;;;;;46.45;18.27;;;3.50;99.90;;;;;;5117625;27;20035;-68
2022/01/19 06:44:50;;;;;;;45.22;18.02;;;3.40;99.90;;;;;;5118957;27;20047;-68
2022/01/19 06:47:16;;;;;;;45.03;18.85;;;3.40;99.90;;;;;;5119749;27;20054;-68
2022/01/19 06:49:42;;;;;;;39.05;17.10;;;3.50;99.90;;;;;;5118386;27;20039;-68
2022/01/19 06:52:07;;;;;;;36.45;17.20;;;3.50;99.90;;;;;;5117432;27;20062;-68
2022/01/19 06:54:33;;;;;;;42.45;18.80;;;3.50;99.90;;;;;;5117888;27;20588;-68
2022/01/19 06:56:58;;;;;;;40.60;18.70;;;3.60;99.90;;;;;;5100796;27;20503;-69
2022/01/19 06:59:24;;;;;;;45.60;18.50;;;3.60;99.90;;;;;;5117689;27;20039;-68
2022/01/19 07:01:50;;;;;;;43.28;18.35;;;3.60;99.90;;;;;;5135549;27;20043;-68
2022/01/19 07:04:17;;;;;;;39.28;17.45;;;3.60;99.90;;;;;;5117291;27;20472;-68
2022/01/19 07:06:42;;;;;;;42.65;18.20;;;3.60;99.90;;;;;;5135783;27;20035;-68
2022/01/19 07:09:08;;;;;;;41.30;19.10;;;3.70;99.90;;;;;;5117607;27;20038;-67
2022/01/19 07:11:37;;;;;;;44.70;18.40;;;3.80;99.90;;;;;;5100126;27;20058;-67
2022/01/19 07:14:04;;;;;;;44.92;19.92;;;3.70;99.90;;;;;;5116949;27;20483;-68
2022/01/19 07:16:29;;;;;;;42.10;20.25;;;3.80;99.90;;;;;;5135586;27;20039;-68
2022/01/19 07:18:55;;;;;;;40.08;18.38;;;3.90;99.90;;;;;;5117299;27;20039;-68
2022/01/19 07:21:21;;;;;;;40.22;17.98;;;3.80;99.90;;;;;;5134501;27;20479;-67
2022/01/19 07:23:46;;;;;;;40.47;19.55;;;3.70;99.90;;;;;;5116788;27;20479;-68
2022/01/19 07:26:12;;;;;;;43.67;19.50;;;3.80;99.90;;;;;;5135047;27;20047;-68
2022/01/19 07:28:37;;;;;;;44.70;20.67;;;3.70;99.90;;;;;;5115982;27;20031;-68
2022/01/19 07:31:03;;;;;;;37.33;19.10;;;3.80;99.90;;;;;;5132366;27;20087;-68
2022/01/19 07:33:29;;;;;;;40.50;19.92;;;3.80;99.90;;;;;;5096345;27;20035;-69
2022/01/19 07:35:54;;;;;;;40.72;19.40;;;3.70;99.90;;;;;;5113969;27;20039;-69
2022/01/19 07:38:23;;;;;;;44.65;19.83;;;3.80;99.90;;;;;;5113853;27;20043;-68
2022/01/19 07:40:49;;;;;;;44.30;18.08;;;3.70;99.90;;;;;;5113867;27;20058;-69
2022/01/19 07:43:14;;;;;;;42.35;18.98;;;3.90;99.90;;;;;;5113246;27;20043;-68
2022/01/19 07:45:40;;;;;;;44.67;20.85;;;3.80;99.90;;;;;;5096767;27;20471;-68
2022/01/19 07:48:06;;;;;;;36.67;19.02;;;3.70;99.90;;;;;;5114298;27;20123;-68
2022/01/19 07:50:32;;;;;;;36.40;19.52;;;3.70;99.90;;;;;;5133958;27;20505;-68
2022/01/19 07:52:58;;;;;;;40.80;20.23;;;3.80;99.90;;;;;;5134644;27;20071;-68
2022/01/19 07:55:24;;;;;;;40.42;19.58;;;3.80;99.90;;;;;;5115258;27;20047;-68
2022/01/19 07:57:51;;;;;;;40.95;19.92;;;3.90;99.90;;;;;;5116607;27;20103;-68
2022/01/19 08:00:18;;;;;;;39.45;19.90;;;3.90;99.90;;;;;;5115357;27;20042;-69
2022/01/19 08:02:44;;;;;;;45.08;21.40;;;3.90;99.90;;;;;;5114949;27;20122;-69
2022/01/19 08:05:10;;;;;;;40.70;20.15;;;3.90;99.90;;;;;;5115477;27;20047;-69
2022/01/19 08:07:36;;;;;;;39.05;21.10;;;3.90;99.90;;;;;;5115697;27;20449;-68
2022/01/19 08:10:04;;;;;;;39.88;20.13;;;3.90;99.90;;;;;;5117601;27;20046;-69
2022/01/19 08:12:30;;;;;;;38.53;20.33;;;4.00;99.90;;;;;;5119163;27;20043;-68
2022/01/19 08:14:58;;;;;;;41.22;20.67;;;4.00;99.90;;;;;;5138735;27;20524;-68
2022/01/19 08:17:23;;;;;;;42.35;21.90;;;4.00;99.90;;;;;;5116538;27;20526;-68
2022/01/19 08:19:49;;;;;;;41.10;22.42;;;4.00;99.90;;;;;;5134561;27;20083;-68
2022/01/19 08:22:15;;;;;;;38.90;21.13;;;3.90;99.90;;;;;;5116084;27;20483;-68
2022/01/19 08:24:40;;;;;;;41.50;21.60;;;3.90;99.90;;;;;;5115914;27;20502;-68
2022/01/19 08:27:06;;;;;;;43.58;23.40;;;4.10;99.90;;;;;;5116065;27;20564;-68
2022/01/19 08:29:31;;;;;;;41.70;22.15;;;4.10;99.90;;;;;;5115863;27;20123;-68
2022/01/19 08:31:57;;;;;;;39.67;23.13;;;4.10;99.90;;;;;;5115551;27;20039;-68
2022/01/19 08:34:22;;;;;;;40.05;21.42;;;4.00;99.90;;;;;;5133784;27;20046;-68
2022/01/19 08:36:48;;;;;;;40.35;22.02;;;3.80;99.90;;;;;;5098757;27;20376;-69
2022/01/19 08:39:14;;;;;;;41.50;22.75;;;3.90;99.90;;;;;;5133928;27;20372;-68
2022/01/19 08:41:39;;;;;;;41.88;22.42;;;3.90;99.90;;;;;;5133922;27;20636;-68
2022/01/19 08:44:05;;;;;;;46.95;22.48;;;4.00;99.90;;;;;;5133706;27;20043;-67
2022/01/19 08:46:31;;;;;;;49.13;23.30;;;3.90;99.90;;;;;;5133262;27;20041;-68
2022/01/19 08:48:56;;;;;;;42.17;23.35;;;4.20;99.90;;;;;;5115589;27;20043;-67
2022/01/19 08:51:22;;;;;;;42.00;24.50;;;4.10;99.90;;;;;;5132793;27;20042;-67
2022/01/19 08:53:48;;;;;;;42.55;24.08;;;4.20;99.90;;;;;;5113434;27;20495;-67
2022/01/19 08:56:13;;;;;;;45.08;24.38;;;4.10;99.90;;;;;;5114792;27;20043;-67
2022/01/19 08:58:39;;;;;;;44.60;24.80;;;4.10;99.90;;;;;;5114706;27;20047;-68
2022/01/19 09:01:05;;;;;;;45.72;24.92;;;4.10;99.90;;;;;;5133115;27;20061;-68
2022/01/19 09:03:31;;;;;;;43.90;23.27;;;4.10;99.90;;;;;;5114330;27;20043;-68
2022/01/19 09:05:56;;;;;;;46.33;22.52;;;4.00;99.90;;;;;;5133297;27;20045;-68
2022/01/19 09:08:22;;;;;;;44.13;23.13;;;4.10;99.90;;;;;;5098129;27;20118;-68
2022/01/19 09:10:50;;;;;;;47.40;24.90;;;4.10;99.90;;;;;;5114731;27;20092;-68
2022/01/19 09:13:17;;;;;;;41.55;24.52;;;4.10;99.90;;;;;;5114555;27;20047;-68
2022/01/19 09:15:42;;;;;;;45.05;25.25;;;4.20;99.90;;;;;;5114852;27;20046;-68
2022/01/19 09:18:08;;;;;;;45.63;23.75;;;4.20;99.90;;;;;;5097486;27;20051;-68
2022/01/19 09:20:34;;;;;;;45.10;24.23;;;4.20;99.90;;;;;;5132466;27;20071;-68
2022/01/19 09:23:02;;;;;;;49.08;24.50;;;4.20;99.90;;;;;;5114401;27;20129;-68
2022/01/19 09:25:28;;;;;;;50.35;25.45;;;4.30;99.90;;;;;;5097398;27;20050;-68
2022/01/19 09:27:53;;;;;;;49.72;24.65;;;4.30;99.90;;;;;;5115040;27;20047;-68
2022/01/19 09:30:24;;;;;;;50.38;25.95;;;4.20;99.90;;;;;;5114804;27;20074;-68
2022/01/19 09:33:06;;;;;;;51.83;24.63;;;4.30;99.90;;;;;;5132798;27;20031;-68
2022/01/19 09:35:49;;;;;;;49.97;26.35;;;4.20;99.90;;;;;;5115121;28;20047;-68
2022/01/19 09:38:15;;;;;;;49.70;26.35;;;4.30;99.90;;;;;;5115052;27;20081;-68
2022/01/19 09:40:40;;;;;;;52.92;27.35;;;4.30;99.90;;;;;;5135418;27;20035;-68
2022/01/19 09:43:07;;;;;;;50.50;25.85;;;4.30;99.90;;;;;;5104390;27;20064;-68
2022/01/19 09:45:33;;;;;;;50.03;25.95;;;4.40;99.90;;;;;;5119495;27;20099;-68
2022/01/19 09:47:59;;;;;;;55.92;27.50;;;4.40;99.90;;;;;;5116602;28;20055;-68
2022/01/19 09:50:25;;;;;;;54.15;25.10;;;4.40;99.90;;;;;;5133378;28;20103;-67
2022/01/19 09:52:51;;;;;;;54.85;27.85;;;4.80;99.90;;;;;;5114293;28;20442;-68
2022/01/19 09:55:16;;;;;;;51.00;26.73;;;4.50;99.90;;;;;;5114061;28;20086;-68
2022/01/19 09:57:42;;;;;;;52.65;26.70;;;4.40;99.90;;;;;;5114387;28;20075;-68
2022/01/19 10:00:08;;;;;;;56.72;26.55;;;4.50;99.90;;;;;;5114399;28;20122;-68
2022/01/19 10:02:34;;;;;;;58.25;28.75;;;4.50;99.90;;;;;;5114087;28;20039;-68
2022/01/19 10:05:06;;;;;;;53.97;26.98;;;4.40;99.90;;;;;;5097190;28;20042;-68
2022/01/19 10:07:32;;;;;;;;;;;4.40;99.90;;;;;;5114854;28;20082;-68
2022/01/19 10:10:02;;;;;;;59.60;29.13;;;4.40;99.90;;;;;;5098107;28;19915;-68
2022/01/19 10:18:18;;;;;;;64.95;30.48;;;4.40;99.90;;;;;;5132487;28;20036;-68
2022/01/19 10:20:45;;;;;;;63.53;31.25;;;4.40;99.90;;;;;;5097236;28;20118;-68
2022/01/19 10:23:48;;;;;;;69.25;32.10;;;4.30;99.90;;;;;;5113870;28;20039;-68
2022/01/19 10:26:25;;;;;;;67.78;31.88;;;4.40;99.90;;;;;;5113850;28;20039;-68
2022/01/19 10:29:02;;;;;;;69.15;31.65;;;4.40;99.90;;;;;;5114032;28;20114;-68
2022/01/19 10:31:29;;;;;;;72.78;33.35;;;4.50;99.90;;;;;;5114078;28;20039;-68
2022/01/19 10:34:18;;;;;;;77.18;33.28;;;4.40;99.90;;;;;;5113421;28;20125;-68
2022/01/19 10:36:56;;;;;;;75.82;33.67;;;4.40;99.90;;;;;;5113863;28;20047;-68
2022/01/19 10:39:24;;;;;;;76.72;32.33;;;4.50;99.90;;;;;;5097181;28;20046;-68
2022/01/19 10:42:06;;;;;;;70.50;33.35;;;4.60;99.90;;;;;;5132117;28;20487;-68
2022/01/19 10:44:37;;;;;;;83.70;34.17;;;4.50;99.90;;;;;;5096753;28;20040;-68
2022/01/19 10:47:04;;;;;;;83.93;36.03;;;4.50;99.90;;;;;;5114232;28;20483;-68
2022/01/19 10:49:53;;;;;;;80.38;35.35;;;4.50;99.90;;;;;;5132210;28;20064;-68
2022/01/19 10:52:27;;;;;;;86.53;35.92;;;4.60;99.90;;;;;;5113529;28;20495;-68
2022/01/19 10:54:53;;;;;;;80.82;35.03;;;4.60;99.90;;;;;;5113524;28;20050;-68
2022/01/19 10:57:18;;;;;;;85.72;33.83;;;4.60;99.90;;;;;;5098953;27;20058;-68
2022/01/19 10:59:44;;;;;;;84.68;35.42;;;4.60;99.90;;;;;;5117471;27;20079;-68
2022/01/19 11:02:12;;;;;;;86.57;36.58;;;4.60;99.90;;;;;;5117121;27;20050;-68
2022/01/19 11:04:39;;;;;;;88.00;37.38;;;4.60;99.90;;;;;;5117280;27;20047;-68
2022/01/19 11:07:04;;;;;;;83.20;35.92;;;4.60;99.90;;;;;;5117182;27;20491;-68
2022/01/19 11:09:32;;;;;;;87.82;36.60;;;4.60;99.90;;;;;;5118633;27;20123;-68
2022/01/19 11:12:10;;;;;;;87.47;36.30;;;4.60;99.90;;;;;;5119868;27;20063;-68
2022/01/19 11:14:37;;;;;;;90.43;37.00;;;4.60;99.90;;;;;;5101158;27;20043;-68
2022/01/19 11:17:03;;;;;;;81.10;36.58;;;4.70;99.90;;;;;;5135598;27;20047;-68
2022/01/19 11:19:29;;;;;;;88.68;38.88;;;4.70;99.90;;;;;;5100221;27;20043;-67
2022/01/19 11:22:16;;;;;;;93.63;37.80;;;4.70;99.90;;;;;;5116734;27;20043;-68
2022/01/19 11:25:01;;;;;;;89.63;38.20;;;4.70;99.90;;;;;;5117132;27;20088;-68
2022/01/19 11:27:29;;;;;;;90.28;37.45;;;4.70;99.90;;;;;;5100467;27;20039;-68
2022/01/19 11:30:12;;;;;;;91.22;37.17;;;4.80;99.90;;;;;;5118638;27;20119;-68
2022/01/19 11:32:38;;;;;;;89.65;38.35;;;4.80;99.90;;;;;;5100723;27;20491;-68
2022/01/19 11:35:05;;;;;;;97.63;37.85;;;4.70;99.90;;;;;;5116864;27;20050;-68
2022/01/19 11:37:38;;;;;;;99.28;39.90;;;4.80;99.90;;;;;;5116834;27;20046;-68
2022/01/19 11:40:16;;;;;;;89.43;37.00;;;4.80;99.90;;;;;;5116800;27;20179;-68
2022/01/19 11:42:43;;;;;;;95.18;37.33;;;4.80;99.90;;;;;;5134710;27;20045;-68
2022/01/19 11:45:30;;;;;;;100.22;40.05;;;4.80;99.90;;;;;;5116338;27;20503;-68
2022/01/19 11:48:12;;;;;;;75.38;30.83;;;4.80;99.90;;;;;;5116688;27;20095;-68
2022/01/19 11:50:38;;;;;;;104.90;42.22;;;5.50;99.90;;;;;;5116845;27;20165;-68
2022/01/19 11:53:09;;;;;;;86.60;35.72;;;6.20;99.90;;;;;;5116240;27;20100;-69
2022/01/19 11:55:35;;;;;;;95.05;38.90;;;5.70;99.90;;;;;;5134797;27;20031;-69
2022/01/19 11:58:16;;;;;;;81.85;38.85;;;5.60;99.90;;;;;;5134951;27;20065;-68
2022/01/19 12:00:45;;;;;;;90.00;38.60;;;5.40;99.90;;;;;;5116493;27;20127;-69
2022/01/19 12:03:31;;;;;;;87.70;36.25;;;5.30;99.90;;;;;;5134513;27;20043;-68
2022/01/19 12:05:58;;;;;;;76.80;34.13;;;5.30;99.90;;;;;;5134587;27;20050;-67
2022/01/19 12:08:23;;;;;;;81.90;37.58;;;5.30;99.90;;;;;;5116131;27;20035;-68
2022/01/19 12:10:55;;;;;;;83.47;38.00;;;5.20;99.90;;;;;;5116206;27;20039;-68
2022/01/19 12:13:29;;;;;;;79.57;34.50;;;5.20;99.90;;;;;;5115825;27;20050;-68
2022/01/19 12:16:15;;;;;;;85.38;36.75;;;5.10;99.90;;;;;;5134504;27;20050;-67
2022/01/19 12:18:46;;;;;;;85.28;35.33;;;5.30;99.90;;;;;;5134495;27;20050;-67
2022/01/19 12:21:31;;;;;;;82.97;37.08;;;5.30;99.90;;;;;;5115944;27;20121;-68
2022/01/19 12:24:16;;;;;;;87.93;36.80;;;5.20;99.90;;;;;;5087741;27;20047;-68
2022/01/19 12:27:07;;;;;;;90.05;37.38;;;5.30;99.90;;;;;;5115944;27;20067;-67
2022/01/19 12:29:33;;;;;;;83.82;35.28;;;5.30;99.90;;;;;;5108788;27;20570;-68
2022/01/19 12:32:00;;;;;;;86.65;35.53;;;5.30;99.90;;;;;;5133878;27;20131;-67
2022/01/19 12:34:26;;;;;;;82.97;34.03;;;5.30;99.90;;;;;;5133971;27;20061;-67
2022/01/19 12:36:58;;;;;;;85.60;36.10;;;5.30;99.90;;;;;;5119086;27;20077;-68
2022/01/19 12:39:28;;;;;;;86.70;36.70;;;5.30;99.90;;;;;;5123309;27;20483;-68
2022/01/19 12:41:59;;;;;;;80.10;34.67;;;5.50;99.90;;;;;;5138142;27;20043;-68
2022/01/19 12:44:47;;;;;;;81.32;35.78;;;5.40;99.90;;;;;;5116377;27;20039;-68
2022/01/19 12:47:28;;;;;;;85.45;36.00;;;5.40;99.90;;;;;;5107490;27;20053;-68
2022/01/19 12:50:08;;;;;;;77.68;34.97;;;5.30;99.90;;;;;;5115440;27;20471;-67
2022/01/19 12:52:58;;;;;;;81.80;36.80;;;5.30;99.90;;;;;;5098401;27;20065;-67
2022/01/19 12:55:38;;;;;;;79.78;35.67;;;5.40;99.90;;;;;;5115336;27;20051;-67
2022/01/19 12:58:17;;;;;;;85.60;35.60;;;5.40;99.90;;;;;;5115251;27;20053;-67
2022/01/19 13:00:47;;;;;;;80.55;36.30;;;5.40;99.90;;;;;;5133703;27;20043;-67
2022/01/19 13:03:21;;;;;;;87.65;35.83;;;5.30;99.90;;;;;;5119460;27;20035;-67
2022/01/19 13:05:50;;;;;;;75.10;35.22;;;5.40;99.90;;;;;;5120118;27;20035;-68
2022/01/19 13:09:01;;;;;;;75.45;33.50;;;5.40;99.90;;;;;;5115372;27;20070;-68
2022/01/19 13:11:42;;;;;;;83.45;34.60;;;5.40;99.90;;;;;;5115286;27;20045;-69
2022/01/19 13:14:10;;;;;;;82.28;35.70;;;5.50;99.90;;;;;;5133470;27;20043;-69
2022/01/19 13:16:56;;;;;;;80.28;35.45;;;5.40;99.90;;;;;;5133244;27;20047;-68
2022/01/19 13:19:26;;;;;;;87.30;36.50;;;5.50;99.90;;;;;;5132436;27;20058;-68
2022/01/19 13:22:01;;;;;;;78.00;34.35;;;5.50;99.90;;;;;;5114801;27;20046;-69
2022/01/19 13:24:30;;;;;;;82.15;36.45;;;5.50;99.90;;;;;;5114859;27;20422;-69
2022/01/19 13:27:04;;;;;;;78.88;35.55;;;5.40;99.90;;;;;;5133314;27;20045;-69
2022/01/19 13:29:37;;;;;;;78.35;36.05;;;5.40;99.90;;;;;;5133048;27;20043;-69
2022/01/19 13:32:09;;;;;;;72.97;34.80;;;5.40;99.90;;;;;;5114171;27;20491;-66
2022/01/19 13:34:56;;;;;;;80.57;35.90;;;5.40;99.90;;;;;;5116782;27;20035;-67
2022/01/19 13:37:24;;;;;;;76.15;34.05;;;5.50;99.90;;;;;;5114954;27;20043;-67
2022/01/19 13:39:59;;;;;;;67.25;33.53;;;5.40;99.90;;;;;;5133134;27;20041;-68
2022/01/19 13:42:39;;;;;;;80.50;36.33;;;5.40;99.90;;;;;;5132859;27;20457;-68
2022/01/19 13:45:10;;;;;;;71.68;35.20;;;5.50;99.90;;;;;;5132795;27;20054;-68
2022/01/19 13:50:42;;;;;;;72.30;35.50;;;5.50;99.90;;;;;;5083660;28;20047;-68
2022/01/19 13:53:08;;;;;;;79.32;34.88;;;5.40;99.90;;;;;;5132496;28;20092;-68
2022/01/19 13:55:35;;;;;;;78.25;34.33;;;5.50;99.90;;;;;;5107959;28;20047;-68
2022/01/19 13:58:12;;;;;;;78.60;35.75;;;5.40;99.90;;;;;;5099158;28;20057;-68
2022/01/19 14:00:59;;;;;;;69.00;33.80;;;5.50;99.90;;;;;;5113372;28;20376;-68
2022/01/19 14:03:43;;;;;;;74.88;35.10;;;5.50;99.90;;;;;;5131479;27;20050;-68
2022/01/19 14:06:23;;;;;;;76.30;33.53;;;5.40;99.90;;;;;;5113590;28;20092;-68
2022/01/19 14:08:48;;;;;;;72.70;34.83;;;5.50;99.90;;;;;;5099645;28;20103;-69
2022/01/19 14:11:24;;;;;;;75.25;35.45;;;5.50;99.90;;;;;;5112550;28;20483;-68
2022/01/19 14:14:07;;;;;;;71.10;33.15;;;5.50;99.90;;;;;;5129681;27;20041;-68
2022/01/19 14:16:44;;;;;;;73.25;33.72;;;5.50;99.90;;;;;;5115546;28;20058;-68